Time;durP1;ratioP1;P1;durP2;ratioP2;P2;SDS_P1;SDS_P2;PMS_P1;PMS_P2;Temp;Humidity;BMP_temperature;BMP_pressure;BME280_temperature;BME280_humidity;BME280_pressure;Samples;Min_cycle;Max_cycle;Signal;HPM_P1;HPM_P2
2024/04/01 00:01:42;;;;;;;8.93;1.60;;;;;;;17.41;50.10;95287.34;5030568;28;20182;-73
2024/04/01 00:04:08;;;;;;;3.47;1.60;;;;;;;17.34;50.25;95276.94;5030363;28;20188;-72
2024/04/01 00:06:33;;;;;;;11.13;2.20;;;;;;;17.32;50.60;95282.47;5030948;28;20206;-72
2024/04/01 00:08:59;;;;;;;8.33;1.87;;;;;;;17.32;50.63;95274.53;5034670;28;20817;-70
2024/04/01 00:11:24;;;;;;;4.53;1.50;;;;;;;17.31;50.73;95272.94;5037957;28;20221;-70
2024/04/01 00:13:49;;;;;;;3.73;1.10;;;;;;;17.27;51.01;95268.38;5036211;28;20227;-72
2024/04/01 00:16:15;;;;;;;5.60;1.47;;;;;;;17.27;51.14;95271.00;5034128;28;20293;-75
2024/04/01 00:18:41;;;;;;;5.57;2.00;;;;;;;17.24;51.11;95280.25;5032816;28;20184;-71
2024/04/01 00:21:06;;;;;;;3.87;1.20;;;;;;;17.25;51.24;95279.22;5038884;28;20211;-73
2024/04/01 00:23:32;;;;;;;9.37;1.80;;;;;;;17.29;51.37;95268.94;5029396;28;20601;-71
2024/04/01 00:25:58;;;;;;;6.33;2.00;;;;;;;17.25;51.35;95273.09;5025495;28;20298;-72
2024/04/01 00:28:23;;;;;;;7.03;1.57;;;;;;;17.25;51.67;95258.03;5035306;28;20838;-74
2024/04/01 00:30:49;;;;;;;7.57;1.90;;;;;;;17.23;51.41;95267.25;5030379;28;20176;-73
2024/04/01 00:33:14;;;;;;;6.70;1.67;;;;;;;17.17;52.21;95256.59;5030043;28;20180;-72
2024/04/01 00:35:40;;;;;;;5.60;1.77;;;;;;;17.13;52.01;95244.09;5029696;28;20697;-72
2024/04/01 00:38:06;;;;;;;7.70;1.87;;;;;;;17.08;52.08;95251.94;5024477;28;20207;-72
2024/04/01 00:40:34;;;;;;;8.90;2.00;;;;;;;17.01;52.65;95244.94;5028822;28;20192;-72
2024/04/01 00:43:06;;;;;;;4.47;1.40;;;;;;;16.97;52.63;95246.50;5030106;28;20219;-73
2024/04/01 00:45:32;;;;;;;8.37;1.80;;;;;;;17.02;52.68;95237.84;5035812;28;20443;-70
2024/04/01 00:48:01;;;;;;;10.90;1.90;;;;;;;16.99;52.50;95233.84;5028204;28;20560;-72
2024/04/01 00:50:27;;;;;;;5.70;1.30;;;;;;;16.92;52.97;95219.91;5040930;28;20549;-72
2024/04/01 00:52:53;;;;;;;7.53;1.70;;;;;;;16.93;53.10;95220.72;5033023;28;20532;-73
2024/04/01 00:55:20;;;;;;;7.60;1.77;;;;;;;16.87;53.53;95198.69;5054405;28;20441;-73
2024/04/01 00:57:46;;;;;;;4.00;1.53;;;;;;;16.88;53.49;95179.13;5017432;28;20570;-72
2024/04/01 01:00:11;;;;;;;6.93;1.80;;;;;;;16.87;53.26;95172.25;5037447;28;20426;-74
2024/04/01 01:02:37;;;;;;;7.27;1.77;;;;;;;16.88;53.45;95179.13;5028825;28;20566;-73
2024/04/01 01:05:03;;;;;;;6.10;1.80;;;;;;;16.85;53.72;95175.09;5037447;28;20183;-72
2024/04/01 01:07:29;;;;;;;7.57;1.63;;;;;;;16.86;53.57;95173.28;5032559;28;20180;-73
2024/04/01 01:09:54;;;;;;;7.53;1.70;;;;;;;16.85;53.80;95156.59;5037240;28;20613;-73
2024/04/01 01:12:20;;;;;;;6.53;1.93;;;;;;;16.82;53.78;95137.78;5028883;28;20175;-73
2024/04/01 01:14:53;;;;;;;11.03;1.80;;;;;;;16.77;53.89;95113.88;5066327;28;20526;-73
2024/04/01 01:17:18;;;;;;;10.47;1.67;;;;;;;16.78;53.85;95118.13;5057833;28;20428;-73
2024/04/01 01:19:44;;;;;;;6.37;1.50;;;;;;;16.77;54.01;95116.53;5049306;28;20438;-72
2024/04/01 01:22:09;;;;;;;3.83;1.50;;;;;;;16.70;54.25;95106.94;5027022;28;20241;-71
2024/04/01 01:24:35;;;;;;;3.33;1.50;;;;;;;16.67;54.30;95110.06;5046062;28;20184;-73
2024/04/01 01:27:00;;;;;;;7.47;2.20;;;;;;;16.66;54.49;95118.22;5064046;28;20210;-73
2024/04/01 01:29:29;;;;;;;5.93;1.80;;;;;;;16.65;54.42;95120.06;5052393;28;20346;-71
2024/04/01 01:32:01;;;;;;;10.50;2.00;;;;;;;16.64;54.13;95115.03;5045162;28;20297;-74
2024/04/01 01:34:30;;;;;;;7.87;2.40;;;;;;;16.64;54.50;95104.44;5047672;28;20473;-71
2024/04/01 01:36:55;;;;;;;12.30;1.60;;;;;;;16.61;54.44;95121.59;5052815;28;20466;-73
2024/04/01 01:39:21;;;;;;;5.67;1.70;;;;;;;16.48;55.18;95132.50;5019725;28;20448;-74
2024/04/01 01:41:46;;;;;;;8.00;1.90;;;;;;;16.51;55.02;95121.41;5043432;28;20261;-71
2024/04/01 01:44:12;;;;;;;12.90;1.70;;;;;;;16.52;54.84;95121.19;5052613;28;20638;-73
2024/04/01 01:46:37;;;;;;;4.33;1.57;;;;;;;16.46;54.98;95124.78;5051742;28;20203;-74
2024/04/01 01:49:03;;;;;;;4.23;1.67;;;;;;;16.49;54.95;95128.81;5049679;28;20223;-73
2024/04/01 01:51:30;;;;;;;5.33;1.70;;;;;;;16.47;54.98;95121.13;5050998;28;20604;-73
2024/04/01 01:53:57;;;;;;;7.53;2.17;;;;;;;16.43;55.09;95106.78;5046610;28;20625;-74
2024/04/01 01:56:22;;;;;;;11.00;2.53;;;;;;;16.40;55.39;95094.84;5061879;28;20456;-73
2024/04/01 01:58:48;;;;;;;5.70;2.03;;;;;;;16.40;55.31;95089.56;5044637;28;20441;-72
2024/04/01 02:01:13;;;;;;;6.20;1.90;;;;;;;16.39;55.46;95080.03;5053423;28;20240;-73
2024/04/01 02:03:39;;;;;;;11.63;1.93;;;;;;;16.38;55.11;95096.91;5059250;28;20274;-73
2024/04/01 02:06:04;;;;;;;4.90;1.70;;;;;;;16.31;55.35;95109.50;5059432;28;20590;-72
2024/04/01 02:08:29;;;;;;;4.30;1.43;;;;;;;16.28;55.52;95123.19;5053823;28;20194;-73
2024/04/01 02:10:57;;;;;;;6.07;2.10;;;;;;;16.29;55.45;95119.50;5057599;28;20225;-73
2024/04/01 02:13:23;;;;;;;9.43;1.70;;;;;;;16.32;55.38;95119.03;5060465;28;20210;-74
2024/04/01 02:15:48;;;;;;;7.50;1.80;;;;;;;16.32;55.35;95091.81;5044298;28;20470;-72
2024/04/01 02:18:14;;;;;;;5.17;1.73;;;;;;;16.23;55.80;95070.28;5037806;28;20279;-73
2024/04/01 02:20:40;;;;;;;4.67;1.70;;;;;;;16.25;55.75;95039.91;5040857;28;20774;-73
2024/04/01 02:23:05;;;;;;;5.70;1.43;;;;;;;16.23;55.67;95038.56;5059562;28;20200;-73
2024/04/01 02:25:33;;;;;;;8.63;1.77;;;;;;;16.27;55.80;95029.09;5051779;28;20782;-73
2024/04/01 02:27:59;;;;;;;5.00;1.93;;;;;;;16.32;55.66;95012.53;5029960;28;20265;-72
2024/04/01 02:30:25;;;;;;;4.23;1.97;;;;;;;16.32;55.38;95017.81;5038717;28;20438;-73
2024/04/01 02:32:51;;;;;;;5.67;1.97;;;;;;;16.34;55.34;95047.44;5024031;28;20204;-74
2024/04/01 02:35:16;;;;;;;3.63;1.60;;;;;;;16.27;55.50;95080.13;5046212;28;20465;-72
2024/04/01 02:37:42;;;;;;;9.00;1.60;;;;;;;16.25;55.46;95076.13;5032919;28;20298;-72
2024/04/01 02:40:10;;;;;;;9.53;1.80;;;;;;;16.23;55.72;95080.84;5045157;28;20245;-73
2024/04/01 02:42:36;;;;;;;7.23;1.77;;;;;;;16.22;55.53;95071.31;5043550;28;20222;-71
2024/04/01 02:45:03;;;;;;;9.37;1.67;;;;;;;16.22;55.80;95068.66;5034370;28;20515;-71
2024/04/01 02:47:29;;;;;;;5.07;1.97;;;;;;;16.23;55.35;95051.78;5031953;28;20443;-73
2024/04/01 02:49:54;;;;;;;5.20;1.50;;;;;;;16.21;55.70;95024.78;5038509;28;20496;-72
2024/04/01 02:52:20;;;;;;;12.20;2.43;;;;;;;16.16;55.76;95035.25;5041910;28;20197;-71
2024/04/01 02:54:46;;;;;;;6.33;1.97;;;;;;;16.05;56.06;95034.31;5029605;28;20696;-71
2024/04/01 02:57:11;;;;;;;12.30;2.17;;;;;;;16.06;56.18;95035.94;5038338;28;20223;-71
2024/04/01 02:59:37;;;;;;;8.23;2.37;;;;;;;15.99;56.06;95030.78;5046600;28;20465;-72
2024/04/01 03:02:04;;;;;;;6.30;1.87;;;;;;;16.04;56.11;95054.63;5041319;28;20191;-73
2024/04/01 03:04:29;;;;;;;7.13;2.23;;;;;;;16.05;55.84;95045.66;5042938;28;21028;-74
2024/04/01 03:06:55;;;;;;;3.87;1.77;;;;;;;16.02;55.84;95040.06;5035504;28;20469;-73
2024/04/01 03:09:20;;;;;;;11.20;1.80;;;;;;;16.03;55.88;95020.53;5037230;28;20264;-72
2024/04/01 03:11:45;;;;;;;8.33;1.90;;;;;;;16.03;55.98;95021.34;5029408;28;20697;-72
2024/04/01 03:14:11;;;;;;;4.40;1.60;;;;;;;16.02;56.26;95013.66;5048214;28;20209;-71
2024/04/01 03:16:37;;;;;;;5.83;1.90;;;;;;;15.94;56.36;94997.16;5046252;28;20703;-72
2024/04/01 03:19:03;;;;;;;5.33;1.57;;;;;;;15.95;56.46;95003.25;5018668;28;20595;-71
2024/04/01 03:21:28;;;;;;;5.37;1.70;;;;;;;16.00;56.26;95008.63;5032008;28;20434;-72
2024/04/01 03:23:56;;;;;;;10.70;1.70;;;;;;;15.97;56.36;95011.75;5032406;28;20557;-73
2024/04/01 03:26:21;;;;;;;5.63;1.50;;;;;;;15.84;56.64;95012.03;5049390;28;20210;-72
2024/04/01 03:28:47;;;;;;;5.27;1.73;;;;;;;15.86;56.63;95008.13;5041395;28;20505;-72
2024/04/01 03:31:12;;;;;;;3.20;1.50;;;;;;;15.75;56.76;95019.53;5045183;28;20651;-73
2024/04/01 03:33:38;;;;;;;3.20;1.30;;;;;;;15.72;56.94;95041.13;5019345;28;20290;-73
2024/04/01 03:36:03;;;;;;;9.07;1.90;;;;;;;15.76;56.88;95053.59;5027051;28;20218;-71
2024/04/01 03:38:29;;;;;;;2.50;1.27;;;;;;;15.81;56.62;95052.91;5028892;28;20244;-73
2024/04/01 03:40:54;;;;;;;9.07;2.33;;;;;;;15.74;56.81;95053.06;5043246;28;20182;-73
2024/04/01 03:43:20;;;;;;;5.37;2.17;;;;;;;15.69;57.10;95050.31;5036852;28;20175;-73
2024/04/01 03:45:46;;;;;;;7.53;2.07;;;;;;;15.78;56.85;95046.25;5038018;28;20222;-71
2024/04/01 03:48:11;;;;;;;4.13;1.90;;;;;;;15.82;56.84;95046.56;5032845;28;20574;-73
2024/04/01 03:50:43;;;;;;;5.73;2.63;;;;;;;15.80;56.73;95046.03;5043241;28;20179;-72
2024/04/01 03:53:08;;;;;;;3.27;1.70;;;;;;;15.75;56.73;95053.84;5035752;28;20298;-72
2024/04/01 03:55:34;;;;;;;4.33;1.60;;;;;;;15.79;56.99;95047.06;5036062;28;20454;-74
2024/04/01 03:57:59;;;;;;;3.80;1.87;;;;;;;15.82;56.77;95047.38;5031333;28;20253;-72
2024/04/01 04:00:27;;;;;;;6.10;1.60;;;;;;;15.79;56.85;95047.84;5044485;28;20219;-73
2024/04/01 04:02:53;;;;;;;4.40;1.60;;;;;;;15.80;56.83;95049.47;5046051;28;20207;-72
2024/04/01 04:05:20;;;;;;;5.30;1.80;;;;;;;15.75;56.93;95041.44;5041812;28;20837;-71
2024/04/01 04:07:45;;;;;;;7.20;1.87;;;;;;;15.75;57.06;95045.94;5034616;28;20283;-70
2024/04/01 04:10:11;;;;;;;6.30;2.33;;;;;;;15.72;57.05;95057.78;5042431;28;20524;-72
2024/04/01 04:12:36;;;;;;;13.00;2.03;;;;;;;15.76;56.95;95037.75;5036860;28;20265;-72
2024/04/01 04:15:03;;;;;;;12.13;2.13;;;;;;;15.72;56.87;95004.16;5029194;28;20195;-75
2024/04/01 04:17:29;;;;;;;4.97;1.60;;;;;;;15.67;56.98;95002.22;5036636;28;20192;-73
2024/04/01 04:19:54;;;;;;;10.53;2.03;;;;;;;15.65;57.02;95015.69;5039973;28;20482;-72
2024/04/01 04:22:21;;;;;;;7.80;1.87;;;;;;;15.57;57.11;95017.91;5033442;28;20461;-72
2024/04/01 04:24:46;;;;;;;9.30;2.17;;;;;;;15.62;57.36;95021.44;5039114;28;20210;-71
2024/04/01 04:27:12;;;;;;;8.00;1.80;;;;;;;15.65;57.09;95023.59;5043109;28;20450;-71
2024/04/01 04:29:37;;;;;;;14.00;1.87;;;;;;;15.68;56.66;95017.03;5026662;28;20551;-71
2024/04/01 04:32:11;;;;;;;3.30;1.70;;;;;;;15.62;57.08;95010.09;5036041;28;20234;-73
2024/04/01 04:34:36;;;;;;;7.13;2.20;;;;;;;15.68;57.22;95022.31;5034935;28;20261;-74
2024/04/01 04:37:05;;;;;;;6.87;1.53;;;;;;;15.65;57.14;95005.13;5033129;28;20462;-73
2024/04/01 04:39:32;;;;;;;6.97;2.03;;;;;;;15.68;56.85;95014.41;5036117;28;20282;-72
2024/04/01 04:41:57;;;;;;;3.10;1.40;;;;;;;15.61;57.13;95027.75;5041485;28;20971;-73
2024/04/01 04:44:23;;;;;;;6.27;1.80;;;;;;;15.60;57.15;95028.78;5030234;28;20506;-71
2024/04/01 04:46:48;;;;;;;3.37;1.57;;;;;;;15.63;57.04;95038.06;5031879;28;20670;-72
2024/04/01 04:49:14;;;;;;;7.03;2.00;;;;;;;15.61;56.51;95046.22;5045438;28;20191;-71
2024/04/01 04:51:39;;;;;;;4.40;2.30;;;;;;;15.51;57.01;95046.84;5043434;28;20206;-72
2024/04/01 04:54:06;;;;;;;5.80;2.20;;;;;;;15.49;57.02;95032.28;5031704;28;20760;-73
2024/04/01 04:56:32;;;;;;;3.60;1.80;;;;;;;15.46;56.95;95033.56;5031076;28;20239;-72
2024/04/01 04:58:57;;;;;;;3.53;1.90;;;;;;;15.44;56.95;95040.09;5046317;28;20759;-72
2024/04/01 05:01:25;;;;;;;3.90;1.70;;;;;;;15.45;56.90;95047.78;5047046;28;20278;-72
2024/04/01 05:03:51;;;;;;;4.00;1.67;;;;;;;15.43;56.70;95055.13;5037411;28;20199;-72
2024/04/01 05:06:16;;;;;;;6.03;1.90;;;;;;;15.39;56.95;95080.38;5037923;28;20525;-72
2024/04/01 05:08:42;;;;;;;6.63;1.80;;;;;;;15.43;56.86;95097.38;5032310;28;20278;-73
2024/04/01 05:11:07;;;;;;;6.47;2.00;;;;;;;15.42;56.88;95105.53;5045032;28;20215;-75
2024/04/01 05:13:36;;;;;;;2.93;1.90;;;;;;;15.38;56.77;95102.53;5038038;28;20206;-71
2024/04/01 05:16:05;;;;;;;4.17;1.77;;;;;;;15.40;56.71;95111.03;5031804;28;20211;-72
2024/04/01 05:18:34;;;;;;;3.30;2.00;;;;;;;15.34;56.54;95133.06;5046058;28;20927;-71
2024/04/01 05:21:00;;;;;;;4.77;1.60;;;;;;;15.24;56.77;95140.78;5028884;28;20466;-71
2024/04/01 05:23:25;;;;;;;3.67;2.03;;;;;;;15.23;56.69;95149.75;5034206;28;20429;-71
2024/04/01 05:25:51;;;;;;;2.60;1.70;;;;;;;15.21;56.90;95152.59;5044169;28;20465;-72
2024/04/01 05:28:17;;;;;;;4.47;2.20;;;;;;;15.23;57.08;95165.56;5033599;28;20191;-72
2024/04/01 05:30:42;;;;;;;4.63;1.67;;;;;;;15.17;57.58;95173.34;5028806;28;20191;-73
2024/04/01 05:33:08;;;;;;;7.50;1.67;;;;;;;15.13;57.75;95177.47;5038625;28;20493;-73
2024/04/01 05:35:36;;;;;;;5.53;1.63;;;;;;;15.07;57.89;95188.16;5038339;28;20225;-72
2024/04/01 05:38:03;;;;;;;9.30;2.00;;;;;;;15.04;58.03;95182.31;5034167;28;20563;-72
2024/04/01 05:40:28;;;;;;;7.23;1.70;;;;;;;14.94;58.43;95174.16;5045608;28;20532;-72
2024/04/01 05:42:54;;;;;;;4.90;1.70;;;;;;;14.83;58.84;95193.41;5029677;28;20435;-72
2024/04/01 05:45:19;;;;;;;3.83;1.50;;;;;;;14.89;58.94;95198.59;5036235;28;20222;-73
2024/04/01 05:47:47;;;;;;;1.97;1.77;;;;;;;14.94;59.18;95202.38;5037747;28;20656;-74
2024/04/01 05:50:13;;;;;;;2.33;1.83;;;;;;;14.90;59.21;95184.38;5037339;28;20194;-72
2024/04/01 05:52:38;;;;;;;3.90;2.50;;;;;;;14.91;59.50;95195.75;5043265;28;20430;-72
2024/04/01 05:55:04;;;;;;;4.23;2.23;;;;;;;14.89;59.74;95224.97;5026254;28;20203;-73
2024/04/01 05:57:30;;;;;;;8.80;2.50;;;;;;;14.95;59.49;95238.28;5034395;28;20195;-72
2024/04/01 05:59:56;;;;;;;3.97;2.17;;;;;;;14.92;59.55;95229.00;5028046;28;21027;-72
2024/04/01 06:02:21;;;;;;;2.77;1.97;;;;;;;14.86;59.61;95220.16;5030976;28;20230;-73
2024/04/01 06:04:47;;;;;;;4.70;2.30;;;;;;;14.85;59.65;95228.28;5040672;28;21076;-72
2024/04/01 06:07:12;;;;;;;4.03;2.43;;;;;;;14.90;60.21;95225.78;5032081;28;20245;-72
2024/04/01 06:09:38;;;;;;;1.97;1.60;;;;;;;14.90;60.12;95213.38;5048512;28;20187;-73
2024/04/01 06:12:05;;;;;;;14.60;6.80;;;;;;;14.92;60.07;95217.63;5039702;28;20191;-72
2024/04/01 06:14:30;;;;;;;7.67;3.43;;;;;;;14.95;59.96;95222.44;5041601;28;20291;-72
2024/04/01 06:16:56;;;;;;;4.13;2.17;;;;;;;14.95;59.82;95227.72;5042998;28;20607;-73
2024/04/01 06:19:21;;;;;;;2.73;1.77;;;;;;;14.92;60.03;95244.81;5031189;28;20199;-71
2024/04/01 06:21:47;;;;;;;2.40;1.63;;;;;;;14.99;59.97;95239.44;5032911;28;20673;-71
2024/04/01 06:24:12;;;;;;;1.50;1.40;;;;;;;14.98;60.47;95246.53;5038648;28;20180;-72
2024/04/01 06:26:38;;;;;;;6.07;1.70;;;;;;;14.95;60.32;95246.97;5036386;28;20210;-73
2024/04/01 06:29:03;;;;;;;1.70;1.40;;;;;;;14.96;60.60;95243.31;5037834;28;20195;-72
2024/04/01 06:31:29;;;;;;;2.93;1.70;;;;;;;14.97;60.61;95246.75;5033561;28;20176;-73
2024/04/01 06:33:55;;;;;;;2.77;1.87;;;;;;;15.03;60.76;95282.75;5036036;28;20226;-72
2024/04/01 06:36:22;;;;;;;2.17;1.40;;;;;;;15.04;60.31;95294.94;5037810;28;20561;-71
2024/04/01 06:38:48;;;;;;;2.50;1.50;;;;;;;15.03;60.43;95302.03;5029969;28;20199;-73
2024/04/01 06:41:14;;;;;;;2.40;1.53;;;;;;;15.05;60.59;95293.91;5046546;28;20442;-72
2024/04/01 06:43:39;;;;;;;5.10;1.93;;;;;;;15.00;60.54;95299.03;5032544;28;20434;-73
2024/04/01 06:46:05;;;;;;;3.10;1.60;;;;;;;15.01;60.46;95312.03;5043922;28;20253;-72
2024/04/01 06:48:30;;;;;;;3.60;1.43;;;;;;;15.00;60.65;95296.41;5033125;28;20196;-71
2024/04/01 06:50:58;;;;;;;3.10;1.30;;;;;;;15.01;60.52;95300.66;5040452;28;20182;-71
2024/04/01 06:53:24;;;;;;;5.07;1.20;;;;;;;14.95;60.80;95307.63;5033832;28;20565;-72
2024/04/01 06:55:49;;;;;;;1.50;1.13;;;;;;;14.84;60.65;95316.31;5038184;28;20470;-71
2024/04/01 06:58:15;;;;;;;4.47;1.30;;;;;;;14.90;60.46;95284.56;5034302;28;20280;-71
2024/04/01 07:00:41;;;;;;;1.80;1.10;;;;;;;14.90;60.69;95289.06;5039766;28;20191;-70
2024/04/01 07:03:07;;;;;;;3.73;1.40;;;;;;;14.88;60.94;95328.81;5021593;28;20273;-74
2024/04/01 07:05:33;;;;;;;4.60;0.93;;;;;;;14.78;60.93;95357.56;5040899;28;20454;-73
2024/04/01 07:07:59;;;;;;;1.20;1.10;;;;;;;14.66;61.18;95357.53;5039891;28;20468;-73
2024/04/01 07:10:26;;;;;;;1.97;1.30;;;;;;;14.75;61.38;95363.28;5034837;28;20500;-72
2024/04/01 07:12:51;;;;;;;2.60;1.50;;;;;;;14.85;61.92;95345.13;5038939;28;20951;-71
2024/04/01 07:15:17;;;;;;;3.63;1.10;;;;;;;14.92;61.69;95347.66;5049221;28;20566;-72
2024/04/01 07:17:43;;;;;;;2.30;1.50;;;;;;;14.94;61.55;95345.59;5040330;28;20192;-71
2024/04/01 07:20:09;;;;;;;4.57;1.80;;;;;;;14.96;61.73;95350.66;5033272;28;20218;-71
2024/04/01 07:22:35;;;;;;;2.57;1.07;;;;;;;15.00;61.68;95357.88;5036993;28;20191;-73
2024/04/01 07:25:00;;;;;;;2.47;1.30;;;;;;;15.03;61.67;95359.25;5044753;28;20452;-71
2024/04/01 07:27:26;;;;;;;2.63;1.07;;;;;;;15.04;61.70;95364.31;5044144;28;20180;-72
2024/04/01 07:29:51;;;;;;;1.93;0.90;;;;;;;15.05;61.44;95370.41;5040678;28;20194;-72
2024/04/01 07:32:17;;;;;;;2.07;1.20;;;;;;;15.05;61.70;95370.41;5048306;28;20193;-73
2024/04/01 07:34:42;;;;;;;3.10;1.30;;;;;;;15.07;61.83;95384.16;5040164;28;20230;-72
2024/04/01 07:37:08;;;;;;;1.50;1.10;;;;;;;15.04;61.52;95395.16;5035359;28;20206;-74
2024/04/01 07:39:33;;;;;;;2.87;1.30;;;;;;;15.04;61.54;95392.53;5044349;28;20278;-73
2024/04/01 07:41:59;;;;;;;2.17;1.20;;;;;;;15.00;61.46;95394.81;5040563;28;20277;-75
2024/04/01 07:44:24;;;;;;;2.80;1.30;;;;;;;15.05;61.22;95402.03;5039775;28;20211;-74
2024/04/01 07:46:50;;;;;;;2.60;1.10;;;;;;;15.08;61.33;95414.78;5035422;28;20227;-72
2024/04/01 07:49:18;;;;;;;1.23;1.00;;;;;;;15.08;61.56;95427.16;5037417;28;20196;-73
2024/04/01 07:51:44;;;;;;;3.37;1.10;;;;;;;15.09;61.21;95429.59;5040794;28;20246;-72
2024/04/01 07:54:09;;;;;;;2.70;1.13;;;;;;;15.00;61.53;95438.81;5040784;28;20982;-70
2024/04/01 07:56:36;;;;;;;1.93;1.13;;;;;;;15.00;61.64;95452.84;5036098;28;20302;-71
2024/04/01 07:59:01;;;;;;;1.30;1.10;;;;;;;15.01;61.49;95454.44;5034265;28;20200;-74
2024/04/01 08:01:27;;;;;;;6.60;1.20;;;;;;;15.05;61.25;95455.63;5038472;28;20442;-72
2024/04/01 08:03:52;;;;;;;2.73;1.30;;;;;;;15.04;61.32;95455.81;5039220;28;20304;-71
2024/04/01 08:06:18;;;;;;;2.83;1.40;;;;;;;15.03;61.40;95462.94;5043471;28;20219;-71
2024/04/01 08:08:43;;;;;;;1.77;0.90;;;;;;;14.95;61.41;95481.69;5031980;28;20234;-73
2024/04/01 08:11:08;;;;;;;2.17;1.10;;;;;;;14.78;61.38;95492.03;5035094;28;20523;-73
2024/04/01 08:13:34;;;;;;;1.83;1.13;;;;;;;14.88;61.12;95508.16;5029716;28;20683;-72
2024/04/01 08:16:04;;;;;;;3.40;1.20;;;;;;;14.89;61.32;95533.50;5041440;28;20222;-74
2024/04/01 08:18:29;;;;;;;2.10;0.90;;;;;;;14.58;60.66;95539.69;5047972;28;20214;-72
2024/04/01 08:20:56;;;;;;;0.90;0.80;;;;;;;14.62;61.06;95534.81;5032517;28;20525;-72
2024/04/01 08:23:22;;;;;;;1.70;1.00;;;;;;;14.59;61.00;95534.22;5020541;28;20184;-71
2024/04/01 08:25:47;;;;;;;1.20;0.93;;;;;;;14.74;60.73;95536.50;5031603;28;20536;-73
2024/04/01 08:28:13;;;;;;;1.10;0.67;;;;;;;14.71;60.69;95546.69;5034177;28;20437;-73
2024/04/01 08:30:39;;;;;;;1.10;0.70;;;;;;;14.71;60.35;95538.78;5031827;28;20224;-72
2024/04/01 08:33:04;;;;;;;1.73;0.77;;;;;;;14.70;60.52;95545.09;5036044;28;20261;-71
2024/04/01 08:35:30;;;;;;;4.30;1.00;;;;;;;14.74;60.70;95548.91;5041128;28;20453;-72
2024/04/01 08:37:56;;;;;;;1.10;0.70;;;;;;;14.65;60.70;95556.25;5036515;28;20291;-71
2024/04/01 08:40:21;;;;;;;1.77;0.90;;;;;;;14.34;60.85;95575.59;5029482;28;20203;-71
2024/04/01 08:42:52;;;;;;;2.17;0.70;;;;;;;14.41;60.55;95576.34;5038882;28;20199;-73
2024/04/01 08:45:18;;;;;;;0.80;0.50;;;;;;;14.42;60.40;95573.50;5029130;28;20267;-73
2024/04/01 08:47:48;;;;;;;2.70;0.77;;;;;;;14.40;60.32;95580.00;5035954;28;20443;-71
2024/04/01 08:50:19;;;;;;;0.97;0.60;;;;;;;14.47;59.70;95580.75;5032061;28;20430;-73
2024/04/01 08:52:52;;;;;;;0.90;0.60;;;;;;;14.47;58.88;95574.66;5040271;28;20513;-72
2024/04/01 08:55:19;;;;;;;2.80;0.90;;;;;;;14.63;58.94;95568.03;5028006;28;20470;-73
2024/04/01 08:57:45;;;;;;;0.90;0.60;;;;;;;14.29;58.09;95574.41;5045450;28;20809;-72
2024/04/01 09:00:11;;;;;;;0.90;0.60;;;;;;;14.30;57.24;95564.69;5037697;28;20442;-73
2024/04/01 09:02:36;;;;;;;1.13;0.60;;;;;;;14.46;57.19;95563.31;5032027;28;20191;-72
2024/04/01 09:05:02;;;;;;;0.90;0.60;;;;;;;14.48;56.99;95566.56;5046393;28;20428;-73
2024/04/01 09:07:27;;;;;;;0.80;0.50;;;;;;;14.62;56.85;95550.63;5029461;28;20238;-74
2024/04/01 09:09:53;;;;;;;0.90;0.60;;;;;;;14.72;57.06;95564.91;5039215;28;20210;-71
2024/04/01 09:12:21;;;;;;;0.90;0.60;;;;;;;14.77;56.57;95566.91;5035424;28;20689;-72
2024/04/01 09:14:46;;;;;;;0.80;0.50;;;;;;;14.79;56.61;95578.03;5017194;28;20221;-72
2024/04/01 09:17:12;;;;;;;1.40;0.50;;;;;;;14.78;56.24;95594.88;5038521;28;20457;-72
2024/04/01 09:19:37;;;;;;;0.80;0.60;;;;;;;14.15;56.70;95596.59;5042883;28;20201;-72
2024/04/01 09:22:06;;;;;;;0.93;0.60;;;;;;;14.68;56.30;95599.84;5020390;28;20222;-73
2024/04/01 09:24:33;;;;;;;1.13;0.60;;;;;;;14.94;56.08;95603.25;5037813;28;20225;-73
2024/04/01 09:27:01;;;;;;;0.90;0.50;;;;;;;14.95;56.07;95615.41;5037744;28;20465;-72
2024/04/01 09:29:26;;;;;;;0.70;0.40;;;;;;;15.10;56.01;95629.06;5038798;28;20455;-70
2024/04/01 09:31:52;;;;;;;0.90;0.50;;;;;;;14.89;55.06;95636.34;5037030;28;20464;-73
2024/04/01 09:34:17;;;;;;;0.80;0.50;;;;;;;15.04;55.39;95627.28;5030305;28;20238;-74
2024/04/01 09:36:43;;;;;;;0.80;0.50;;;;;;;15.01;55.25;95638.28;5048360;28;20226;-73
2024/04/01 09:39:10;;;;;;;3.37;0.50;;;;;;;14.57;55.08;95639.06;5048977;28;20711;-72
2024/04/01 09:41:35;;;;;;;1.20;0.50;;;;;;;14.30;56.08;95638.47;5027579;28;20435;-74
2024/04/01 09:44:01;;;;;;;1.30;0.50;;;;;;;14.39;54.53;95650.34;5036566;28;20499;-72
2024/04/01 09:46:27;;;;;;;3.00;0.60;;;;;;;14.07;54.60;95647.72;5028230;28;20207;-73
2024/04/01 09:48:52;;;;;;;0.80;0.40;;;;;;;14.38;54.03;95653.19;5038274;28;20277;-72
2024/04/01 09:51:20;;;;;;;0.80;0.50;;;;;;;14.68;54.03;95657.84;5042459;28;20192;-74
2024/04/01 09:53:46;;;;;;;1.10;0.53;;;;;;;14.69;53.68;95652.34;5042960;28;20211;-71
2024/04/01 09:56:41;;;;;;;1.10;0.60;;;;;;;14.69;52.58;95664.75;5031856;28;20467;-71
2024/04/01 09:59:33;;;;;;;1.00;0.77;;;;;;;14.52;52.64;95670.50;5045539;28;20536;-71
2024/04/01 10:02:20;;;;;;;0.90;0.53;;;;;;;14.77;52.68;95672.38;5045999;28;20483;-71
2024/04/01 10:04:58;;;;;;;0.90;0.60;;;;;;;14.44;52.82;95697.94;5042167;28;20422;-71
2024/04/01 10:07:33;;;;;;;0.90;0.60;;;;;;;14.87;52.66;95685.06;5030371;28;20455;-72
2024/04/01 10:10:18;;;;;;;0.80;0.50;;;;;;;15.05;52.08;95681.66;5033779;28;20433;-72
2024/04/01 10:12:59;;;;;;;0.80;0.50;;;;;;;15.07;50.87;95684.06;5029523;28;20853;-72
2024/04/01 10:15:58;;;;;;;0.80;0.50;;;;;;;14.98;51.07;95702.03;5046281;28;20926;-71
2024/04/01 10:18:45;;;;;;;0.80;0.40;;;;;;;15.00;50.70;95689.41;5037422;28;20793;-72
2024/04/01 10:21:29;;;;;;;0.80;0.50;;;;;;;14.86;49.55;95689.56;5049879;28;20433;-72
2024/04/01 10:24:15;;;;;;;0.80;0.50;;;;;;;14.58;50.27;95700.47;5042596;28;20427;-71
2024/04/01 10:26:48;;;;;;;0.80;0.50;;;;;;;14.50;50.06;95717.38;5042523;28;20457;-72
2024/04/01 10:29:44;;;;;;;2.30;0.50;;;;;;;14.58;50.14;95735.56;5043623;28;21064;-70
2024/04/01 10:32:34;;;;;;;0.80;0.50;;;;;;;14.79;49.43;95746.81;5042641;28;20433;-71
2024/04/01 10:35:20;;;;;;;0.70;0.40;;;;;;;14.81;48.93;95752.69;5033928;28;20491;-71
2024/04/01 10:38:07;;;;;;;0.80;0.40;;;;;;;14.87;49.11;95758.91;5051305;28;20452;-71
2024/04/01 10:40:48;;;;;;;1.97;0.40;;;;;;;14.42;49.74;95765.06;5028319;28;20429;-72
2024/04/01 10:43:35;;;;;;;0.70;0.40;;;;;;;14.66;49.48;95752.13;5047562;28;20430;-70
2024/04/01 10:46:03;;;;;;;0.80;0.43;;;;;;;14.02;50.02;95778.44;5031625;28;21223;-71
2024/04/01 10:48:29;;;;;;;0.80;0.50;;;;;;;14.28;49.60;95775.69;5044630;28;20426;-73
2024/04/01 10:51:16;;;;;;;0.80;0.50;;;;;;;14.54;49.64;95778.38;5036033;28;20449;-70
2024/04/01 10:54:00;;;;;;;0.80;0.50;;;;;;;14.79;49.39;95777.66;5037944;28;20462;-73
2024/04/01 10:56:50;;;;;;;1.00;0.50;;;;;;;14.85;49.22;95777.59;5027480;28;20465;-72
2024/04/01 10:59:34;;;;;;;0.80;0.40;;;;;;;14.65;48.71;95792.69;5034032;28;20427;-73
2024/04/01 11:02:11;;;;;;;0.80;0.40;;;;;;;14.38;49.41;95792.84;5036693;28;20473;-72
2024/04/01 11:04:52;;;;;;;0.80;0.50;;;;;;;14.50;48.45;95828.06;5039842;28;20493;-72
2024/04/01 11:07:29;;;;;;;0.90;0.50;;;;;;;14.61;48.95;95807.34;5029137;28;20493;-72
2024/04/01 11:10:19;;;;;;;1.00;0.60;;;;;;;14.94;48.43;95806.34;5018122;28;20437;-72
2024/04/01 11:12:58;;;;;;;0.80;0.50;;;;;;;15.00;48.11;95810.75;5035401;28;20441;-71
2024/04/01 11:15:25;;;;;;;0.80;0.50;;;;;;;15.17;48.11;95830.31;5023326;28;20445;-71
2024/04/01 11:17:53;;;;;;;1.00;0.70;;;;;;;15.19;47.84;95840.66;5020105;28;20805;-72
2024/04/01 11:20:34;;;;;;;0.80;0.50;;;;;;;15.11;47.50;95844.38;5019856;28;20438;-74
2024/04/01 11:23:03;;;;;;;1.83;0.50;;;;;;;14.96;49.39;95851.78;5038690;28;20436;-72
2024/04/01 11:25:57;;;;;;;0.80;0.50;;;;;;;14.90;49.33;95848.97;5031242;28;20896;-70
2024/04/01 11:28:58;;;;;;;1.30;0.50;;;;;;;14.88;49.89;95860.75;5034218;28;20881;-70
2024/04/01 11:31:24;;;;;;;3.77;0.57;;;;;;;14.98;50.82;95849.75;5022681;28;20446;-71
2024/04/01 11:33:56;;;;;;;0.90;0.60;;;;;;;15.02;50.55;95858.84;5032902;28;20477;-72
2024/04/01 11:36:50;;;;;;;0.90;0.60;;;;;;;14.89;50.14;95849.97;5028510;28;20473;-71
2024/04/01 11:39:17;;;;;;;4.10;0.50;;;;;;;14.83;50.29;95874.59;5033268;28;21193;-74